createdAt,value
2024-02-21T00:03:11.853Z,94835.00
2024-02-21T00:07:15.491Z,94835.00
2024-02-21T00:11:19.056Z,94836.00
2024-02-21T00:15:24.133Z,94835.00
2024-02-21T00:19:28.007Z,94832.00
2024-02-21T00:23:33.386Z,94838.00
2024-02-21T00:27:36.882Z,94835.00
2024-02-21T00:31:41.975Z,94832.00
2024-02-21T00:35:45.533Z,94829.00
2024-02-21T00:39:49.181Z,94829.00
2024-02-21T00:43:52.969Z,94824.00
2024-02-21T00:47:59.186Z,94819.00
2024-02-21T00:52:03.208Z,94821.00
2024-02-21T00:56:07.389Z,94811.00
2024-02-21T01:00:11.706Z,94800.00
2024-02-21T01:04:16.937Z,94788.00
2024-02-21T01:08:20.531Z,94785.00
2024-02-21T01:12:24.206Z,94797.00
2024-02-21T01:16:28.912Z,94785.00
2024-02-21T01:20:34.846Z,94787.00
2024-02-21T01:24:38.296Z,94780.00
2024-02-21T01:28:42.535Z,94774.00
2024-02-21T01:32:46.178Z,94774.00
2024-02-21T01:36:51.221Z,94773.00
2024-02-21T01:40:55.557Z,94760.00
2024-02-21T01:44:59.094Z,94763.00
2024-02-21T01:49:03.523Z,94764.00
2024-02-21T01:53:10.722Z,94747.00
2024-02-21T01:57:14.313Z,94749.00
2024-02-21T02:01:21.604Z,94742.00
2024-02-21T02:05:26.164Z,94739.00
2024-02-21T02:09:31.508Z,94733.00
2024-02-21T02:13:36.906Z,94727.00
2024-02-21T02:17:40.373Z,94727.00
2024-02-21T02:21:48.171Z,94731.00
2024-02-21T02:25:56.179Z,94730.00
2024-02-21T02:30:00.006Z,94731.00
2024-02-21T02:34:04.380Z,94724.00
2024-02-21T02:38:08.563Z,94730.00
2024-02-21T02:42:13.460Z,94708.00
2024-02-21T02:46:17.264Z,94710.00
2024-02-21T02:50:20.714Z,94695.00
2024-02-21T03:00:56.078Z,94689.00
2024-02-21T03:05:14.754Z,94678.00
2024-02-21T03:09:18.765Z,94684.00
2024-02-21T03:13:22.330Z,94680.00
2024-02-21T03:17:28.276Z,94668.00
2024-02-21T03:21:33.217Z,94674.00
2024-02-21T03:25:38.101Z,94668.00
2024-02-21T03:29:41.666Z,94670.00
2024-02-21T03:33:45.695Z,94663.00
2024-02-21T03:37:50.917Z,94672.00
2024-02-21T03:41:54.913Z,94662.00
2024-02-21T03:46:01.230Z,94666.00
2024-02-21T03:50:06.216Z,94660.00
2024-02-21T03:54:11.307Z,94659.00
2024-02-21T03:58:15.018Z,94652.00
2024-02-21T04:02:18.832Z,94656.00
2024-02-21T04:06:22.455Z,94646.00
2024-02-21T04:10:27.691Z,94645.00
2024-02-21T04:14:31.225Z,94650.00
2024-02-21T04:18:34.977Z,94647.00
2024-02-21T04:22:38.516Z,94644.00
2024-02-21T04:26:44.956Z,94644.00
2024-02-21T04:30:48.610Z,94636.00
2024-02-21T04:34:52.486Z,94634.00
2024-02-21T04:38:56.679Z,94623.00
2024-02-21T04:43:03.960Z,94619.00
2024-02-21T04:47:07.912Z,94624.00
2024-02-21T04:51:12.418Z,94624.00
2024-02-21T04:55:15.996Z,94629.00
2024-02-21T04:59:20.898Z,94628.00
2024-02-21T05:03:24.328Z,94626.00
2024-02-21T05:07:28.108Z,94623.00
2024-02-21T05:11:31.810Z,94618.00
2024-02-21T05:15:36.796Z,94619.00
2024-02-21T05:19:40.456Z,94611.00
2024-02-21T05:23:44.272Z,94601.00
2024-02-21T05:27:48.036Z,94608.00
2024-02-21T05:32:00.210Z,94619.00
2024-02-21T05:36:07.697Z,94596.00
2024-02-21T05:40:14.570Z,94594.00
2024-02-21T05:44:18.265Z,94607.00
2024-02-21T05:48:23.587Z,94603.00
2024-02-21T05:52:27.109Z,94598.00
2024-02-21T05:56:30.907Z,94603.00
2024-02-21T06:00:35.954Z,94600.00
2024-02-21T06:04:41.666Z,94592.00
2024-02-21T06:08:45.330Z,94577.00
2024-02-21T06:12:49.000Z,94589.00
2024-02-21T06:16:52.569Z,94586.00
2024-02-21T06:20:57.637Z,94577.00
2024-02-21T06:25:03.568Z,94579.00
2024-02-21T06:29:07.231Z,94579.00
2024-02-21T06:33:10.748Z,94583.00
2024-02-21T06:37:16.858Z,94578.00
2024-02-21T06:41:21.153Z,94588.00
2024-02-21T06:45:25.741Z,94595.00
2024-02-21T06:49:29.383Z,94604.00
2024-02-21T06:53:34.312Z,94609.00
2024-02-21T06:57:37.788Z,94600.00
2024-02-21T07:01:45.043Z,94605.00
2024-02-21T07:05:48.836Z,94594.00
2024-02-21T07:09:55.086Z,94607.00
2024-02-21T07:13:59.036Z,94604.00
2024-02-21T07:18:04.859Z,94601.00
2024-02-21T07:22:08.484Z,94595.00
2024-02-21T07:26:13.436Z,94599.00
2024-02-21T07:30:17.875Z,94574.00
2024-02-21T07:34:21.498Z,94582.00
2024-02-21T07:38:25.117Z,94585.00
2024-02-21T07:42:30.141Z,94573.00
2024-02-21T07:46:33.997Z,94580.00
2024-02-21T07:50:37.813Z,94562.00
2024-02-21T07:54:41.685Z,94568.00
2024-02-21T07:58:47.197Z,94560.00
2024-02-21T08:02:51.800Z,94557.00
2024-02-21T08:06:57.030Z,94542.00
2024-02-21T08:11:00.788Z,94536.00
2024-02-21T08:15:11.961Z,94545.00
2024-02-21T08:19:15.595Z,94538.00
2024-02-21T08:23:19.579Z,94554.00
2024-02-21T08:27:23.226Z,94556.00
2024-02-21T08:31:32.504Z,94548.00
2024-02-21T08:35:36.191Z,94550.00
2024-02-21T08:39:39.862Z,94546.00
2024-02-21T08:43:43.392Z,94529.00
2024-02-21T08:47:48.385Z,94543.00
2024-02-21T08:51:52.317Z,94543.00
2024-02-21T08:55:57.035Z,94547.00
2024-02-21T09:00:00.849Z,94542.00
2024-02-21T09:04:07.382Z,94544.00
2024-02-21T09:08:16.661Z,94547.00
2024-02-21T09:12:20.284Z,94550.00
2024-02-21T09:16:24.802Z,94538.00
2024-02-21T09:20:30.590Z,94544.00
2024-02-21T09:24:34.387Z,94539.00
2024-02-21T09:28:37.929Z,94540.00
2024-02-21T09:32:41.883Z,94536.00
2024-02-21T09:36:47.028Z,94538.00
2024-02-21T09:40:54.523Z,94541.00
2024-02-21T09:44:58.353Z,94544.00
2024-02-21T09:49:14.463Z,94534.00
2024-02-21T09:53:21.211Z,94542.00
2024-02-21T09:57:26.206Z,94535.00
2024-02-21T10:01:34.659Z,94530.00
2024-02-21T10:05:40.609Z,94529.00
2024-02-21T10:09:48.931Z,94533.00
2024-02-21T10:13:53.077Z,94542.00
2024-02-21T10:18:01.984Z,94536.00
2024-02-21T10:22:09.304Z,94538.00
2024-02-21T10:26:14.727Z,94545.00
2024-02-21T10:30:19.147Z,94549.00
2024-02-21T10:34:22.930Z,94532.00
2024-02-21T10:38:26.804Z,94523.00
2024-02-21T10:42:33.180Z,94517.00
2024-02-21T10:46:39.796Z,94518.00
2024-02-21T10:50:57.005Z,94517.00
2024-02-21T10:55:06.020Z,94505.00
2024-02-21T10:59:11.400Z,94482.00
2024-02-21T11:03:15.442Z,94495.00
2024-02-21T11:07:19.453Z,94484.00
2024-02-21T11:11:34.450Z,94477.00
2024-02-21T11:15:44.510Z,94458.00
2024-02-21T11:19:48.625Z,94451.00
2024-02-21T11:23:59.176Z,94449.00
2024-02-21T11:28:03.932Z,94446.00
2024-02-21T11:32:12.267Z,94438.00
2024-02-21T11:36:26.518Z,94433.00
2024-02-21T11:40:31.239Z,94414.00
2024-02-21T11:44:35.547Z,94421.00
2024-02-21T11:48:41.412Z,94418.00
2024-02-21T11:52:45.172Z,94425.00
2024-02-21T11:56:48.642Z,94410.00
2024-02-21T12:00:52.345Z,94403.00
2024-02-21T12:04:58.708Z,94398.00
2024-02-21T12:09:03.270Z,94392.00
2024-02-21T12:13:10.773Z,94389.00
2024-02-21T12:17:15.103Z,94390.00
2024-02-21T12:21:20.142Z,94388.00
2024-02-21T12:25:27.302Z,94392.00
2024-02-21T12:29:31.572Z,94397.00
2024-02-21T12:33:36.260Z,94381.00
2024-02-21T12:37:41.331Z,94372.00
2024-02-21T12:41:45.517Z,94357.00
2024-02-21T12:45:49.765Z,94352.00
2024-02-21T12:49:53.439Z,94336.00
2024-02-21T12:53:59.308Z,94339.00
2024-02-21T12:58:06.817Z,94336.00
2024-02-21T13:02:11.456Z,94333.00
2024-02-21T13:06:15.579Z,94321.00
2024-02-21T13:10:20.774Z,94323.00
2024-02-21T13:14:24.536Z,94319.00
2024-02-21T13:18:28.706Z,94307.00
2024-02-21T13:22:32.670Z,94303.00
2024-02-21T13:26:37.675Z,94293.00
2024-02-21T13:30:41.405Z,94299.00
2024-02-21T13:34:44.912Z,94301.00
2024-02-21T13:38:49.549Z,94284.00
2024-02-21T13:42:57.496Z,94282.00
2024-02-21T13:47:06.915Z,94273.00
2024-02-21T13:51:10.970Z,94273.00
2024-02-21T13:55:16.748Z,94277.00
2024-02-21T13:59:22.970Z,94271.00
2024-02-21T14:03:28.513Z,94260.00
2024-02-21T14:07:34.606Z,94250.00
2024-02-21T14:11:39.099Z,94236.00
2024-02-21T14:15:47.314Z,94237.00
2024-02-21T14:19:51.029Z,94233.00
2024-02-21T14:23:55.117Z,94223.00
2024-02-21T14:27:58.540Z,94229.00
2024-02-21T14:32:03.743Z,94227.00
2024-02-21T14:36:09.213Z,94213.00
2024-02-21T14:40:14.252Z,94214.00
2024-02-21T14:44:18.118Z,94210.00
2024-02-21T14:48:23.894Z,94207.00
2024-02-21T14:52:28.991Z,94192.00
2024-02-21T14:56:32.881Z,94197.00
2024-02-21T15:00:36.657Z,94198.00
2024-02-21T15:04:41.600Z,94194.00
2024-02-21T15:08:45.115Z,94189.00
2024-02-21T15:12:48.971Z,94182.00
2024-02-21T15:16:52.871Z,94185.00
2024-02-21T15:20:58.094Z,94169.00
2024-02-21T15:25:02.471Z,94179.00
2024-02-21T15:29:08.213Z,94182.00
2024-02-21T15:33:11.829Z,94181.00
2024-02-21T15:37:17.807Z,94181.00
2024-02-21T15:41:22.838Z,94166.00
2024-02-21T15:45:26.579Z,94177.00
2024-02-21T15:49:30.273Z,94169.00
2024-02-21T15:53:35.492Z,94159.00
2024-02-21T15:57:39.135Z,94159.00
2024-02-21T16:01:44.490Z,94154.00
2024-02-21T16:05:48.656Z,94153.00
2024-02-21T16:09:53.633Z,94152.00
2024-02-21T16:13:57.585Z,94151.00
2024-02-21T16:18:01.878Z,94153.00
2024-02-21T16:22:06.955Z,94148.00
2024-02-21T16:26:13.176Z,94139.00
2024-02-21T16:30:18.017Z,94140.00
2024-02-21T16:34:22.315Z,94142.00
2024-02-21T16:38:27.808Z,94140.00
2024-02-21T16:42:32.910Z,94142.00
2024-02-21T16:46:36.755Z,94143.00
2024-02-21T16:50:49.067Z,94138.00
2024-02-21T16:54:58.009Z,94136.00
2024-02-21T16:59:03.806Z,94136.00
2024-02-21T17:03:07.586Z,94135.00
2024-02-21T17:07:11.181Z,94131.00
2024-02-21T17:11:15.250Z,94136.00
2024-02-21T17:15:20.202Z,94128.00
2024-02-21T17:19:24.057Z,94131.00
2024-02-21T17:23:27.782Z,94117.00
2024-02-21T17:27:31.262Z,94123.00
2024-02-21T17:31:36.110Z,94101.00
2024-02-21T17:35:40.698Z,94091.00
2024-02-21T17:39:45.557Z,94083.00
2024-02-21T17:43:49.249Z,94076.00
2024-02-21T17:47:54.297Z,94059.00
2024-02-21T17:51:58.454Z,94059.00
2024-02-21T17:56:02.292Z,94062.00
2024-02-21T18:00:08.523Z,94069.00
2024-02-21T18:04:19.416Z,94068.00
2024-02-21T18:08:23.019Z,94057.00
2024-02-21T18:12:26.733Z,94053.00
2024-02-21T18:16:31.331Z,94062.00
2024-02-21T18:20:37.832Z,94056.00
2024-02-21T18:24:41.361Z,94050.00
2024-02-21T18:28:45.757Z,94052.00
2024-02-21T18:32:51.287Z,94027.00
2024-02-21T18:36:57.362Z,94029.00
2024-02-21T18:41:01.266Z,94024.00
2024-02-21T18:45:06.517Z,94017.00
2024-02-21T18:49:10.180Z,94014.00
2024-02-21T18:53:15.426Z,94007.00
2024-02-21T18:57:20.582Z,94001.00
2024-02-21T19:01:24.445Z,93996.00
2024-02-21T19:05:29.220Z,93991.00
2024-02-21T19:09:34.168Z,93991.00
2024-02-21T19:13:38.087Z,93994.00
2024-02-21T19:17:42.144Z,93983.00
2024-02-21T19:21:46.157Z,93977.00
2024-02-21T19:25:51.289Z,93975.00
2024-02-21T19:29:55.027Z,93965.00
2024-02-21T19:33:58.690Z,93971.00
2024-02-21T19:38:04.404Z,93961.00
2024-02-21T19:42:09.617Z,93958.00
2024-02-21T19:46:13.355Z,93943.00
2024-02-21T19:50:22.622Z,93944.00
2024-02-21T19:54:26.224Z,93933.00
2024-02-21T19:58:33.432Z,93924.00
2024-02-21T20:02:37.036Z,93925.00
2024-02-21T20:06:40.464Z,93914.00
2024-02-21T20:10:45.269Z,93909.00
2024-02-21T20:14:50.320Z,93911.00
2024-02-21T20:18:54.241Z,93892.00
2024-02-21T20:22:58.180Z,93880.00
2024-02-21T20:27:01.875Z,93875.00
2024-02-21T20:31:06.915Z,93869.00
2024-02-21T20:35:12.105Z,93858.00
2024-02-21T20:39:16.991Z,93851.00
2024-02-21T20:43:20.424Z,93842.00
2024-02-21T20:47:26.352Z,93839.00
2024-02-21T20:51:29.811Z,93836.00
2024-02-21T20:55:33.592Z,93836.00
2024-02-21T20:59:37.069Z,93843.00
2024-02-21T21:03:43.277Z,93827.00
2024-02-21T21:07:47.572Z,93823.00
2024-02-21T21:11:51.988Z,93821.00
2024-02-21T21:15:55.525Z,93808.00
2024-02-21T21:20:00.629Z,93806.00
2024-02-21T21:24:05.628Z,93800.00
2024-02-21T21:28:09.709Z,93806.00
2024-02-21T21:32:14.216Z,93800.00
2024-02-21T21:36:19.181Z,93797.00
2024-02-21T21:40:23.239Z,93780.00
2024-02-21T21:44:26.772Z,93781.00
2024-02-21T21:48:31.958Z,93767.00
2024-02-21T21:52:36.999Z,93766.00
2024-02-21T21:56:40.653Z,93761.00
2024-02-21T22:00:45.198Z,93754.00
2024-02-21T22:04:49.310Z,93748.00
2024-02-21T22:08:54.184Z,93736.00
2024-02-21T22:12:58.295Z,93738.00
2024-02-21T22:17:05.394Z,93735.00
2024-02-21T22:21:09.087Z,93723.00
2024-02-21T22:25:13.939Z,93721.00
2024-02-21T22:29:18.116Z,93716.00
2024-02-21T22:33:21.590Z,93709.00
2024-02-21T22:37:26.434Z,93707.00
2024-02-21T22:41:32.292Z,93700.00
2024-02-21T22:45:35.962Z,93697.00
2024-02-21T22:49:39.377Z,93701.00
2024-02-21T22:53:43.003Z,93683.00
2024-02-21T22:57:47.860Z,93695.00
2024-02-21T23:01:51.634Z,93689.00
2024-02-21T23:05:58.272Z,93685.00
2024-02-21T23:10:02.087Z,93677.00
2024-02-21T23:14:10.578Z,93664.00
2024-02-21T23:18:14.351Z,93664.00
2024-02-21T23:22:17.962Z,93645.00
2024-02-21T23:26:31.101Z,93638.00
2024-02-21T23:30:36.071Z,93633.00
2024-02-21T23:34:39.748Z,93639.00
2024-02-21T23:38:43.219Z,93629.00
2024-02-21T23:42:46.877Z,93630.00
2024-02-21T23:46:53.027Z,93629.00
2024-02-21T23:50:58.105Z,93624.00
2024-02-21T23:55:05.623Z,93626.00
2024-02-21T23:59:10.981Z,93632.00
